sensor_id;sensor_type;location;lat;lon;timestamp;temperature;humidity
69546;SHT31;56766;52.260;20.746;2023-12-04T00:01:16;-1.12;88.39
69546;SHT31;56766;52.260;20.746;2023-12-04T00:03:45;-1.11;88.41
69546;SHT31;56766;52.260;20.746;2023-12-04T00:06:12;-1.10;88.48
69546;SHT31;56766;52.260;20.746;2023-12-04T00:08:39;-1.10;88.50
69546;SHT31;56766;52.260;20.746;2023-12-04T00:11:07;-1.09;88.50
69546;SHT31;56766;52.260;20.746;2023-12-04T00:13:33;-1.09;88.53
69546;SHT31;56766;52.260;20.746;2023-12-04T00:16:01;-1.10;88.57
69546;SHT31;56766;52.260;20.746;2023-12-04T00:18:28;-1.09;88.60
69546;SHT31;56766;52.260;20.746;2023-12-04T00:20:55;-1.08;88.60
69546;SHT31;56766;52.260;20.746;2023-12-04T00:23:21;-1.06;88.60
69546;SHT31;56766;52.260;20.746;2023-12-04T00:25:48;-1.05;88.60
69546;SHT31;56766;52.260;20.746;2023-12-04T00:28:15;-1.05;88.60
69546;SHT31;56766;52.260;20.746;2023-12-04T00:30:41;-1.03;88.60
69546;SHT31;56766;52.260;20.746;2023-12-04T00:33:08;-1.02;88.61
69546;SHT31;56766;52.260;20.746;2023-12-04T00:35:35;-1.02;88.66
69546;SHT31;56766;52.260;20.746;2023-12-04T00:38:01;-1.01;88.70
69546;SHT31;56766;52.260;20.746;2023-12-04T00:40:29;-1.00;88.70
69546;SHT31;56766;52.260;20.746;2023-12-04T00:42:55;-0.99;88.70
69546;SHT31;56766;52.260;20.746;2023-12-04T00:45:22;-0.99;88.70
69546;SHT31;56766;52.260;20.746;2023-12-04T00:47:48;-0.98;88.70
69546;SHT31;56766;52.260;20.746;2023-12-04T00:50:15;-0.98;88.70
69546;SHT31;56766;52.260;20.746;2023-12-04T00:52:42;-0.97;88.76
69546;SHT31;56766;52.260;20.746;2023-12-04T00:55:08;-0.96;88.73
69546;SHT31;56766;52.260;20.746;2023-12-04T00:57:35;-0.95;88.73
69546;SHT31;56766;52.260;20.746;2023-12-04T01:00:03;-0.94;88.71
69546;SHT31;56766;52.260;20.746;2023-12-04T01:02:30;-0.93;88.70
69546;SHT31;56766;52.260;20.746;2023-12-04T01:04:57;-0.92;88.70
69546;SHT31;56766;52.260;20.746;2023-12-04T01:07:23;-0.89;88.70
69546;SHT31;56766;52.260;20.746;2023-12-04T01:09:50;-0.88;88.70
69546;SHT31;56766;52.260;20.746;2023-12-04T01:12:16;-0.89;88.70
69546;SHT31;56766;52.260;20.746;2023-12-04T01:14:43;-0.89;88.70
69546;SHT31;56766;52.260;20.746;2023-12-04T01:17:10;-0.88;88.70
69546;SHT31;56766;52.260;20.746;2023-12-04T01:19:37;-0.87;88.66
69546;SHT31;56766;52.260;20.746;2023-12-04T01:22:03;-0.87;88.66
69546;SHT31;56766;52.260;20.746;2023-12-04T01:24:30;-0.87;88.63
69546;SHT31;56766;52.260;20.746;2023-12-04T01:26:57;-0.88;88.60
69546;SHT31;56766;52.260;20.746;2023-12-04T01:29:23;-0.86;88.60
69546;SHT31;56766;52.260;20.746;2023-12-04T01:31:50;-0.87;88.60
69546;SHT31;56766;52.260;20.746;2023-12-04T01:34:16;-0.86;88.60
69546;SHT31;56766;52.260;20.746;2023-12-04T01:36:43;-0.85;88.54
69546;SHT31;56766;52.260;20.746;2023-12-04T01:39:10;-0.85;88.50
69546;SHT31;56766;52.260;20.746;2023-12-04T01:41:37;-0.86;88.39
69546;SHT31;56766;52.260;20.746;2023-12-04T01:44:03;-0.92;88.07
69546;SHT31;56766;52.260;20.746;2023-12-04T01:46:30;-0.98;87.99
69546;SHT31;56766;52.260;20.746;2023-12-04T01:48:57;-1.03;87.92
69546;SHT31;56766;52.260;20.746;2023-12-04T01:51:27;-1.07;87.85
69546;SHT31;56766;52.260;20.746;2023-12-04T01:53:55;-1.10;87.74
69546;SHT31;56766;52.260;20.746;2023-12-04T01:56:27;-1.16;87.64
69546;SHT31;56766;52.260;20.746;2023-12-04T01:58:53;-1.20;87.68
69546;SHT31;56766;52.260;20.746;2023-12-04T02:01:21;-1.23;87.66
69546;SHT31;56766;52.260;20.746;2023-12-04T02:03:50;-1.26;87.66
69546;SHT31;56766;52.260;20.746;2023-12-04T02:06:17;-1.29;87.66
69546;SHT31;56766;52.260;20.746;2023-12-04T02:08:47;-1.31;87.59
69546;SHT31;56766;52.260;20.746;2023-12-04T02:11:14;-1.33;87.59
69546;SHT31;56766;52.260;20.746;2023-12-04T02:13:41;-1.36;87.60
69546;SHT31;56766;52.260;20.746;2023-12-04T02:16:10;-1.37;87.55
69546;SHT31;56766;52.260;20.746;2023-12-04T02:18:43;-1.41;87.50
69546;SHT31;56766;52.260;20.746;2023-12-04T02:21:10;-1.41;87.54
69546;SHT31;56766;52.260;20.746;2023-12-04T02:23:36;-1.43;87.50
69546;SHT31;56766;52.260;20.746;2023-12-04T02:26:09;-1.43;87.50
69546;SHT31;56766;52.260;20.746;2023-12-04T02:28:46;-1.45;87.44
69546;SHT31;56766;52.260;20.746;2023-12-04T02:31:24;-1.46;87.42
69546;SHT31;56766;52.260;20.746;2023-12-04T02:33:56;-1.48;87.33
69546;SHT31;56766;52.260;20.746;2023-12-04T02:36:25;-1.51;87.37
69546;SHT31;56766;52.260;20.746;2023-12-04T02:38:53;-1.52;87.39
69546;SHT31;56766;52.260;20.746;2023-12-04T02:41:20;-1.53;87.40
69546;SHT31;56766;52.260;20.746;2023-12-04T02:43:47;-1.54;87.43
69546;SHT31;56766;52.260;20.746;2023-12-04T02:46:14;-1.52;87.45
69546;SHT31;56766;52.260;20.746;2023-12-04T02:48:41;-1.51;87.44
69546;SHT31;56766;52.260;20.746;2023-12-04T02:51:08;-1.51;87.40
69546;SHT31;56766;52.260;20.746;2023-12-04T02:53:35;-1.50;87.40
69546;SHT31;56766;52.260;20.746;2023-12-04T02:56:01;-1.51;87.41
69546;SHT31;56766;52.260;20.746;2023-12-04T02:58:28;-1.52;87.41
69546;SHT31;56766;52.260;20.746;2023-12-04T03:00:55;-1.51;87.45
69546;SHT31;56766;52.260;20.746;2023-12-04T03:03:21;-1.53;87.48
69546;SHT31;56766;52.260;20.746;2023-12-04T03:05:48;-1.54;87.47
69546;SHT31;56766;52.260;20.746;2023-12-04T03:08:15;-1.56;87.46
69546;SHT31;56766;52.260;20.746;2023-12-04T03:10:41;-1.58;87.41
69546;SHT31;56766;52.260;20.746;2023-12-04T03:13:08;-1.57;87.49
69546;SHT31;56766;52.260;20.746;2023-12-04T03:15:35;-1.57;87.50
69546;SHT31;56766;52.260;20.746;2023-12-04T03:18:01;-1.58;87.49
69546;SHT31;56766;52.260;20.746;2023-12-04T03:20:28;-1.59;87.45
69546;SHT31;56766;52.260;20.746;2023-12-04T03:22:55;-1.61;87.50
69546;SHT31;56766;52.260;20.746;2023-12-04T03:25:21;-1.61;87.50
69546;SHT31;56766;52.260;20.746;2023-12-04T03:27:48;-1.61;87.50
69546;SHT31;56766;52.260;20.746;2023-12-04T03:30:15;-1.62;87.50
69546;SHT31;56766;52.260;20.746;2023-12-04T03:32:41;-1.63;87.49
69546;SHT31;56766;52.260;20.746;2023-12-04T03:35:08;-1.64;87.50
69546;SHT31;56766;52.260;20.746;2023-12-04T03:37:36;-1.66;87.48
69546;SHT31;56766;52.260;20.746;2023-12-04T03:40:03;-1.69;87.49
69546;SHT31;56766;52.260;20.746;2023-12-04T03:42:30;-1.69;87.50
69546;SHT31;56766;52.260;20.746;2023-12-04T03:44:57;-1.71;87.52
69546;SHT31;56766;52.260;20.746;2023-12-04T03:47:24;-1.71;87.50
69546;SHT31;56766;52.260;20.746;2023-12-04T03:49:51;-1.73;87.50
69546;SHT31;56766;52.260;20.746;2023-12-04T03:52:18;-1.75;87.49
69546;SHT31;56766;52.260;20.746;2023-12-04T03:54:44;-1.77;87.50
69546;SHT31;56766;52.260;20.746;2023-12-04T03:57:11;-1.77;87.50
69546;SHT31;56766;52.260;20.746;2023-12-04T03:59:38;-1.79;87.55
69546;SHT31;56766;52.260;20.746;2023-12-04T04:02:04;-1.78;87.59
69546;SHT31;56766;52.260;20.746;2023-12-04T04:04:32;-1.79;87.52
69546;SHT31;56766;52.260;20.746;2023-12-04T04:06:58;-1.81;87.46
69546;SHT31;56766;52.260;20.746;2023-12-04T04:09:25;-1.81;87.48
69546;SHT31;56766;52.260;20.746;2023-12-04T04:11:52;-1.82;87.50
69546;SHT31;56766;52.260;20.746;2023-12-04T04:14:18;-1.84;87.44
69546;SHT31;56766;52.260;20.746;2023-12-04T04:16:45;-1.86;87.40
69546;SHT31;56766;52.260;20.746;2023-12-04T04:19:11;-1.88;87.37
69546;SHT31;56766;52.260;20.746;2023-12-04T04:21:41;-1.91;87.33
69546;SHT31;56766;52.260;20.746;2023-12-04T04:24:08;-1.93;87.34
69546;SHT31;56766;52.260;20.746;2023-12-04T04:26:34;-1.93;87.34
69546;SHT31;56766;52.260;20.746;2023-12-04T04:29:01;-1.95;87.38
69546;SHT31;56766;52.260;20.746;2023-12-04T04:31:28;-1.97;87.40
69546;SHT31;56766;52.260;20.746;2023-12-04T04:33:54;-1.99;87.40
69546;SHT31;56766;52.260;20.746;2023-12-04T04:36:21;-2.00;87.41
69546;SHT31;56766;52.260;20.746;2023-12-04T04:38:48;-2.03;87.43
69546;SHT31;56766;52.260;20.746;2023-12-04T04:41:15;-2.03;87.50
69546;SHT31;56766;52.260;20.746;2023-12-04T04:43:42;-2.03;87.56
69546;SHT31;56766;52.260;20.746;2023-12-04T04:46:09;-2.04;87.58
69546;SHT31;56766;52.260;20.746;2023-12-04T04:48:36;-2.04;87.54
69546;SHT31;56766;52.260;20.746;2023-12-04T04:51:03;-2.04;87.59
69546;SHT31;56766;52.260;20.746;2023-12-04T04:53:30;-2.05;87.60
69546;SHT31;56766;52.260;20.746;2023-12-04T04:55:57;-2.05;87.60
69546;SHT31;56766;52.260;20.746;2023-12-04T04:58:23;-2.06;87.59
69546;SHT31;56766;52.260;20.746;2023-12-04T05:00:50;-2.06;87.60
69546;SHT31;56766;52.260;20.746;2023-12-04T05:03:17;-2.08;87.58
69546;SHT31;56766;52.260;20.746;2023-12-04T05:05:43;-2.09;87.52
69546;SHT31;56766;52.260;20.746;2023-12-04T05:08:10;-2.09;87.55
69546;SHT31;56766;52.260;20.746;2023-12-04T05:10:38;-2.11;87.50
69546;SHT31;56766;52.260;20.746;2023-12-04T05:13:05;-2.13;87.49
69546;SHT31;56766;52.260;20.746;2023-12-04T05:15:32;-2.14;87.50
69546;SHT31;56766;52.260;20.746;2023-12-04T05:17:58;-2.14;87.50
69546;SHT31;56766;52.260;20.746;2023-12-04T05:20:25;-2.14;87.50
69546;SHT31;56766;52.260;20.746;2023-12-04T05:22:52;-2.15;87.50
69546;SHT31;56766;52.260;20.746;2023-12-04T05:25:18;-2.15;87.50
69546;SHT31;56766;52.260;20.746;2023-12-04T05:27:45;-2.15;87.50
69546;SHT31;56766;52.260;20.746;2023-12-04T05:30:12;-2.16;87.49
69546;SHT31;56766;52.260;20.746;2023-12-04T05:32:39;-2.19;87.42
69546;SHT31;56766;52.260;20.746;2023-12-04T05:35:06;-2.22;87.40
69546;SHT31;56766;52.260;20.746;2023-12-04T05:37:33;-2.23;87.47
69546;SHT31;56766;52.260;20.746;2023-12-04T05:40:00;-2.22;87.49
69546;SHT31;56766;52.260;20.746;2023-12-04T05:42:27;-2.22;87.49
69546;SHT31;56766;52.260;20.746;2023-12-04T05:44:53;-2.21;87.49
69546;SHT31;56766;52.260;20.746;2023-12-04T05:47:21;-2.22;87.49
69546;SHT31;56766;52.260;20.746;2023-12-04T05:49:48;-2.21;87.52
69546;SHT31;56766;52.260;20.746;2023-12-04T05:52:15;-2.22;87.54
69546;SHT31;56766;52.260;20.746;2023-12-04T05:54:41;-2.21;87.54
69546;SHT31;56766;52.260;20.746;2023-12-04T05:57:08;-2.20;87.52
69546;SHT31;56766;52.260;20.746;2023-12-04T05:59:34;-2.20;87.51
69546;SHT31;56766;52.260;20.746;2023-12-04T06:02:01;-2.19;87.54
69546;SHT31;56766;52.260;20.746;2023-12-04T06:04:28;-2.18;87.50
69546;SHT31;56766;52.260;20.746;2023-12-04T06:06:54;-2.18;87.53
69546;SHT31;56766;52.260;20.746;2023-12-04T06:09:21;-2.17;87.50
69546;SHT31;56766;52.260;20.746;2023-12-04T06:11:48;-2.16;87.50
69546;SHT31;56766;52.260;20.746;2023-12-04T06:14:14;-2.15;87.50
69546;SHT31;56766;52.260;20.746;2023-12-04T06:16:41;-2.12;87.51
69546;SHT31;56766;52.260;20.746;2023-12-04T06:19:07;-2.11;87.50
69546;SHT31;56766;52.260;20.746;2023-12-04T06:21:34;-2.10;87.50
69546;SHT31;56766;52.260;20.746;2023-12-04T06:24:01;-2.09;87.51
69546;SHT31;56766;52.260;20.746;2023-12-04T06:26:31;-2.07;87.50
69546;SHT31;56766;52.260;20.746;2023-12-04T06:28:58;-2.08;87.49
69546;SHT31;56766;52.260;20.746;2023-12-04T06:31:25;-2.07;87.49
69546;SHT31;56766;52.260;20.746;2023-12-04T06:33:53;-2.05;87.49
69546;SHT31;56766;52.260;20.746;2023-12-04T06:36:21;-2.05;87.50
69546;SHT31;56766;52.260;20.746;2023-12-04T06:38:51;-2.04;87.50
69546;SHT31;56766;52.260;20.746;2023-12-04T06:41:19;-2.04;87.49
69546;SHT31;56766;52.260;20.746;2023-12-04T06:43:48;-2.04;87.50
69546;SHT31;56766;52.260;20.746;2023-12-04T06:46:15;-2.02;87.48
69546;SHT31;56766;52.260;20.746;2023-12-04T06:48:44;-2.03;87.41
69546;SHT31;56766;52.260;20.746;2023-12-04T06:51:11;-2.01;87.46
69546;SHT31;56766;52.260;20.746;2023-12-04T06:53:37;-1.99;87.40
69546;SHT31;56766;52.260;20.746;2023-12-04T06:56:04;-1.96;87.37
69546;SHT31;56766;52.260;20.746;2023-12-04T06:58:31;-1.93;87.35
69546;SHT31;56766;52.260;20.746;2023-12-04T07:00:58;-1.91;87.30
69546;SHT31;56766;52.260;20.746;2023-12-04T07:03:25;-1.89;87.34
69546;SHT31;56766;52.260;20.746;2023-12-04T07:05:52;-1.85;87.26
69546;SHT31;56766;52.260;20.746;2023-12-04T07:08:19;-1.84;87.20
69546;SHT31;56766;52.260;20.746;2023-12-04T07:10:45;-1.81;87.20
69546;SHT31;56766;52.260;20.746;2023-12-04T07:13:13;-1.77;87.17
69546;SHT31;56766;52.260;20.746;2023-12-04T07:15:40;-1.74;87.12
69546;SHT31;56766;52.260;20.746;2023-12-04T07:18:07;-1.70;87.10
69546;SHT31;56766;52.260;20.746;2023-12-04T07:20:34;-1.67;87.02
69546;SHT31;56766;52.260;20.746;2023-12-04T07:23:02;-1.63;87.02
69546;SHT31;56766;52.260;20.746;2023-12-04T07:25:28;-1.59;86.95
69546;SHT31;56766;52.260;20.746;2023-12-04T07:27:55;-1.56;86.87
69546;SHT31;56766;52.260;20.746;2023-12-04T07:30:24;-1.52;86.80
69546;SHT31;56766;52.260;20.746;2023-12-04T07:32:52;-1.46;86.79
69546;SHT31;56766;52.260;20.746;2023-12-04T07:35:20;-1.39;86.72
69546;SHT31;56766;52.260;20.746;2023-12-04T07:37:47;-1.32;86.63
69546;SHT31;56766;52.260;20.746;2023-12-04T07:40:14;-1.25;86.51
69546;SHT31;56766;52.260;20.746;2023-12-04T07:42:40;-1.17;86.44
69546;SHT31;56766;52.260;20.746;2023-12-04T07:45:08;-1.14;86.30
69546;SHT31;56766;52.260;20.746;2023-12-04T07:47:36;-1.08;86.32
69546;SHT31;56766;52.260;20.746;2023-12-04T07:50:03;-1.00;86.22
69546;SHT31;56766;52.260;20.746;2023-12-04T07:52:30;-0.97;86.04
69546;SHT31;56766;52.260;20.746;2023-12-04T07:54:57;-0.93;86.00
69546;SHT31;56766;52.260;20.746;2023-12-04T07:57:23;-0.89;85.95
69546;SHT31;56766;52.260;20.746;2023-12-04T07:59:50;-0.84;85.87
69546;SHT31;56766;52.260;20.746;2023-12-04T08:02:17;-0.83;85.74
69546;SHT31;56766;52.260;20.746;2023-12-04T08:04:43;-0.84;85.54
69546;SHT31;56766;52.260;20.746;2023-12-04T08:07:11;-0.86;85.49
69546;SHT31;56766;52.260;20.746;2023-12-04T08:09:39;-0.85;85.42
69546;SHT31;56766;52.260;20.746;2023-12-04T08:12:06;-0.83;85.30
69546;SHT31;56766;52.260;20.746;2023-12-04T08:14:32;-0.82;85.30
69546;SHT31;56766;52.260;20.746;2023-12-04T08:16:59;-0.85;85.29
69546;SHT31;56766;52.260;20.746;2023-12-04T08:19:26;-0.86;85.24
69546;SHT31;56766;52.260;20.746;2023-12-04T08:21:53;-0.86;85.09
69546;SHT31;56766;52.260;20.746;2023-12-04T08:24:19;-0.86;85.01
69546;SHT31;56766;52.260;20.746;2023-12-04T08:26:46;-0.87;84.93
69546;SHT31;56766;52.260;20.746;2023-12-04T08:29:13;-0.85;84.93
69546;SHT31;56766;52.260;20.746;2023-12-04T08:31:40;-0.81;84.99
69546;SHT31;56766;52.260;20.746;2023-12-04T08:34:07;-0.76;85.07
69546;SHT31;56766;52.260;20.746;2023-12-04T08:36:33;-0.72;84.91
69546;SHT31;56766;52.260;20.746;2023-12-04T08:39:00;-0.68;84.86
69546;SHT31;56766;52.260;20.746;2023-12-04T08:41:27;-0.66;84.60
69546;SHT31;56766;52.260;20.746;2023-12-04T08:43:55;-0.63;84.66
69546;SHT31;56766;52.260;20.746;2023-12-04T08:46:21;-0.61;84.45
69546;SHT31;56766;52.260;20.746;2023-12-04T08:48:48;-0.63;84.39
69546;SHT31;56766;52.260;20.746;2023-12-04T08:51:16;-0.61;84.48
69546;SHT31;56766;52.260;20.746;2023-12-04T08:53:44;-0.60;84.37
69546;SHT31;56766;52.260;20.746;2023-12-04T08:56:11;-0.53;84.44
69546;SHT31;56766;52.260;20.746;2023-12-04T08:58:39;-0.43;84.42
69546;SHT31;56766;52.260;20.746;2023-12-04T09:01:05;-0.33;84.44
69546;SHT31;56766;52.260;20.746;2023-12-04T09:03:32;-0.25;84.20
69546;SHT31;56766;52.260;20.746;2023-12-04T09:05:59;-0.22;83.85
69546;SHT31;56766;52.260;20.746;2023-12-04T09:08:26;-0.18;83.73
69546;SHT31;56766;52.260;20.746;2023-12-04T09:10:53;-0.16;83.39
69546;SHT31;56766;52.260;20.746;2023-12-04T09:13:20;-0.19;83.21
69546;SHT31;56766;52.260;20.746;2023-12-04T09:15:47;-0.24;83.00
69546;SHT31;56766;52.260;20.746;2023-12-04T09:18:13;-0.24;83.28
69546;SHT31;56766;52.260;20.746;2023-12-04T09:20:40;-0.18;83.32
69546;SHT31;56766;52.260;20.746;2023-12-04T09:23:06;-0.13;83.17
69546;SHT31;56766;52.260;20.746;2023-12-04T09:25:33;-0.13;83.01
69546;SHT31;56766;52.260;20.746;2023-12-04T09:28:00;-0.12;83.09
69546;SHT31;56766;52.260;20.746;2023-12-04T09:30:27;-0.18;83.08
69546;SHT31;56766;52.260;20.746;2023-12-04T09:32:54;-0.27;82.89
69546;SHT31;56766;52.260;20.746;2023-12-04T09:35:21;-0.33;83.00
69546;SHT31;56766;52.260;20.746;2023-12-04T09:37:47;-0.35;83.12
69546;SHT31;56766;52.260;20.746;2023-12-04T09:40:17;-0.36;83.08
69546;SHT31;56766;52.260;20.746;2023-12-04T09:42:44;-0.31;83.20
69546;SHT31;56766;52.260;20.746;2023-12-04T09:45:12;-0.26;83.18
69546;SHT31;56766;52.260;20.746;2023-12-04T09:47:41;-0.22;82.94
69546;SHT31;56766;52.260;20.746;2023-12-04T09:50:10;-0.23;82.86
69546;SHT31;56766;52.260;20.746;2023-12-04T09:52:37;-0.19;82.89
69546;SHT31;56766;52.260;20.746;2023-12-04T09:55:04;-0.18;82.63
69546;SHT31;56766;52.260;20.746;2023-12-04T09:57:32;-0.11;82.89
69546;SHT31;56766;52.260;20.746;2023-12-04T10:00:02;-0.00;82.85
69546;SHT31;56766;52.260;20.746;2023-12-04T10:02:30;0.07;82.64
69546;SHT31;56766;52.260;20.746;2023-12-04T10:04:58;0.15;82.64
69546;SHT31;56766;52.260;20.746;2023-12-04T10:07:25;0.24;82.90
69546;SHT31;56766;52.260;20.746;2023-12-04T10:09:51;0.34;82.90
69546;SHT31;56766;52.260;20.746;2023-12-04T10:12:19;0.40;82.84
69546;SHT31;56766;52.260;20.746;2023-12-04T10:15:07;0.45;82.81
69546;SHT31;56766;52.260;20.746;2023-12-04T10:17:38;0.50;82.60
69546;SHT31;56766;52.260;20.746;2023-12-04T10:20:13;0.60;82.57
69546;SHT31;56766;52.260;20.746;2023-12-04T10:22:59;0.73;82.55
69546;SHT31;56766;52.260;20.746;2023-12-04T10:25:30;0.89;82.58
69546;SHT31;56766;52.260;20.746;2023-12-04T10:28:09;1.07;82.36
69546;SHT31;56766;52.260;20.746;2023-12-04T10:30:37;1.26;82.10
69546;SHT31;56766;52.260;20.746;2023-12-04T10:33:07;1.47;81.65
69546;SHT31;56766;52.260;20.746;2023-12-04T10:35:36;1.66;81.31
69546;SHT31;56766;52.260;20.746;2023-12-04T10:38:04;1.88;81.07
69546;SHT31;56766;52.260;20.746;2023-12-04T10:40:36;2.03;80.68
69546;SHT31;56766;52.260;20.746;2023-12-04T10:43:18;2.09;80.13
69546;SHT31;56766;52.260;20.746;2023-12-04T10:45:49;2.05;79.64
69546;SHT31;56766;52.260;20.746;2023-12-04T10:48:18;2.05;79.68
69546;SHT31;56766;52.260;20.746;2023-12-04T10:50:47;2.02;79.35
69546;SHT31;56766;52.260;20.746;2023-12-04T10:53:16;1.90;78.65
69546;SHT31;56766;52.260;20.746;2023-12-04T10:55:44;1.77;78.91
69546;SHT31;56766;52.260;20.746;2023-12-04T10:58:13;1.72;79.10
69546;SHT31;56766;52.260;20.746;2023-12-04T11:00:48;1.67;79.03
69546;SHT31;56766;52.260;20.746;2023-12-04T11:03:44;1.64;79.00
69546;SHT31;56766;52.260;20.746;2023-12-04T11:06:16;1.61;79.09
69546;SHT31;56766;52.260;20.746;2023-12-04T11:08:48;1.66;79.14
69546;SHT31;56766;52.260;20.746;2023-12-04T11:11:21;1.70;78.85
69546;SHT31;56766;52.260;20.746;2023-12-04T11:14:01;1.73;78.66
69546;SHT31;56766;52.260;20.746;2023-12-04T11:16:48;1.76;78.68
69546;SHT31;56766;52.260;20.746;2023-12-04T11:19:27;1.82;78.79
69546;SHT31;56766;52.260;20.746;2023-12-04T11:22:00;1.86;78.49
69546;SHT31;56766;52.260;20.746;2023-12-04T11:24:28;1.85;78.39
69546;SHT31;56766;52.260;20.746;2023-12-04T11:26:56;1.88;78.39
69546;SHT31;56766;52.260;20.746;2023-12-04T11:29:25;1.91;78.34
69546;SHT31;56766;52.260;20.746;2023-12-04T11:31:51;1.94;78.29
69546;SHT31;56766;52.260;20.746;2023-12-04T11:34:18;1.94;78.09
69546;SHT31;56766;52.260;20.746;2023-12-04T11:36:45;1.96;78.20
69546;SHT31;56766;52.260;20.746;2023-12-04T11:39:12;2.00;78.20
69546;SHT31;56766;52.260;20.746;2023-12-04T11:41:42;2.00;78.01
69546;SHT31;56766;52.260;20.746;2023-12-04T11:44:13;1.98;78.11
69546;SHT31;56766;52.260;20.746;2023-12-04T11:46:56;1.94;77.81
69546;SHT31;56766;52.260;20.746;2023-12-04T11:49:27;1.88;77.74
69546;SHT31;56766;52.260;20.746;2023-12-04T11:51:56;1.86;77.78
69546;SHT31;56766;52.260;20.746;2023-12-04T11:54:28;1.85;77.90
69546;SHT31;56766;52.260;20.746;2023-12-04T11:59:39;1.84;77.58
69546;SHT31;56766;52.260;20.746;2023-12-04T12:02:10;1.81;77.52
69546;SHT31;56766;52.260;20.746;2023-12-04T12:04:38;1.79;77.55
69546;SHT31;56766;52.260;20.746;2023-12-04T12:07:05;1.75;77.59
69546;SHT31;56766;52.260;20.746;2023-12-04T12:09:33;1.74;77.68
69546;SHT31;56766;52.260;20.746;2023-12-04T12:12:01;1.68;77.38
69546;SHT31;56766;52.260;20.746;2023-12-04T12:14:30;1.64;77.57
69546;SHT31;56766;52.260;20.746;2023-12-04T12:16:59;1.61;77.63
69546;SHT31;56766;52.260;20.746;2023-12-04T12:19:27;1.59;77.66
69546;SHT31;56766;52.260;20.746;2023-12-04T12:21:54;1.59;77.77
69546;SHT31;56766;52.260;20.746;2023-12-04T12:24:21;1.60;77.89
69546;SHT31;56766;52.260;20.746;2023-12-04T12:26:54;1.63;77.95
69546;SHT31;56766;52.260;20.746;2023-12-04T12:29:22;1.61;77.73
69546;SHT31;56766;52.260;20.746;2023-12-04T12:31:49;1.56;77.69
69546;SHT31;56766;52.260;20.746;2023-12-04T12:34:17;1.55;77.84
69546;SHT31;56766;52.260;20.746;2023-12-04T12:36:44;1.53;77.72
69546;SHT31;56766;52.260;20.746;2023-12-04T12:39:11;1.51;77.76
69546;SHT31;56766;52.260;20.746;2023-12-04T12:41:38;1.51;77.83
69546;SHT31;56766;52.260;20.746;2023-12-04T12:44:05;1.51;77.79
69546;SHT31;56766;52.260;20.746;2023-12-04T12:46:33;1.47;77.63
69546;SHT31;56766;52.260;20.746;2023-12-04T12:49:00;1.43;77.82
69546;SHT31;56766;52.260;20.746;2023-12-04T12:51:28;1.40;77.96
69546;SHT31;56766;52.260;20.746;2023-12-04T12:53:56;1.38;77.88
69546;SHT31;56766;52.260;20.746;2023-12-04T12:56:25;1.34;78.06
69546;SHT31;56766;52.260;20.746;2023-12-04T12:58:53;1.33;78.12
69546;SHT31;56766;52.260;20.746;2023-12-04T13:01:23;1.30;78.14
69546;SHT31;56766;52.260;20.746;2023-12-04T13:03:51;1.28;78.07
69546;SHT31;56766;52.260;20.746;2023-12-04T13:06:18;1.25;78.16
69546;SHT31;56766;52.260;20.746;2023-12-04T13:08:45;1.23;78.17
69546;SHT31;56766;52.260;20.746;2023-12-04T13:11:11;1.19;78.39
69546;SHT31;56766;52.260;20.746;2023-12-04T13:13:38;1.17;78.59
69546;SHT31;56766;52.260;20.746;2023-12-04T13:16:05;1.15;78.78
69546;SHT31;56766;52.260;20.746;2023-12-04T13:18:32;1.12;78.80
69546;SHT31;56766;52.260;20.746;2023-12-04T13:21:02;1.07;78.83
69546;SHT31;56766;52.260;20.746;2023-12-04T13:23:28;1.04;78.97
69546;SHT31;56766;52.260;20.746;2023-12-04T13:25:55;0.99;79.01
69546;SHT31;56766;52.260;20.746;2023-12-04T13:28:22;0.96;79.12
69546;SHT31;56766;52.260;20.746;2023-12-04T13:30:48;0.90;79.26
69546;SHT31;56766;52.260;20.746;2023-12-04T13:33:15;0.88;79.59
69546;SHT31;56766;52.260;20.746;2023-12-04T13:35:42;0.83;79.51
69546;SHT31;56766;52.260;20.746;2023-12-04T13:38:09;0.74;79.44
69546;SHT31;56766;52.260;20.746;2023-12-04T13:40:39;0.65;79.64
69546;SHT31;56766;52.260;20.746;2023-12-04T13:43:06;0.58;79.78
69546;SHT31;56766;52.260;20.746;2023-12-04T13:45:51;0.52;80.03
69546;SHT31;56766;52.260;20.746;2023-12-04T13:48:19;0.49;80.06
69546;SHT31;56766;52.260;20.746;2023-12-04T13:50:47;0.45;80.23
69546;SHT31;56766;52.260;20.746;2023-12-04T13:53:16;0.42;80.28
69546;SHT31;56766;52.260;20.746;2023-12-04T13:55:47;0.39;80.30
69546;SHT31;56766;52.260;20.746;2023-12-04T13:58:39;0.32;80.40
69546;SHT31;56766;52.260;20.746;2023-12-04T14:01:11;0.25;80.44
69546;SHT31;56766;52.260;20.746;2023-12-04T14:03:43;0.20;80.55
69546;SHT31;56766;52.260;20.746;2023-12-04T14:06:11;0.13;80.61
69546;SHT31;56766;52.260;20.746;2023-12-04T14:08:38;0.06;80.68
69546;SHT31;56766;52.260;20.746;2023-12-04T14:11:05;-0.01;80.63
69546;SHT31;56766;52.260;20.746;2023-12-04T14:13:32;-0.08;80.71
69546;SHT31;56766;52.260;20.746;2023-12-04T14:16:00;-0.14;80.86
69546;SHT31;56766;52.260;20.746;2023-12-04T14:18:27;-0.21;80.93
69546;SHT31;56766;52.260;20.746;2023-12-04T14:20:57;-0.29;80.92
69546;SHT31;56766;52.260;20.746;2023-12-04T14:23:24;-0.36;80.91
69546;SHT31;56766;52.260;20.746;2023-12-04T14:25:52;-0.45;80.97
69546;SHT31;56766;52.260;20.746;2023-12-04T14:28:19;-0.52;81.07
69546;SHT31;56766;52.260;20.746;2023-12-04T14:30:47;-0.59;81.11
69546;SHT31;56766;52.260;20.746;2023-12-04T14:33:14;-0.66;81.20
69546;SHT31;56766;52.260;20.746;2023-12-04T14:35:40;-0.71;81.23
69546;SHT31;56766;52.260;20.746;2023-12-04T14:38:10;-0.78;81.23
69546;SHT31;56766;52.260;20.746;2023-12-04T14:40:36;-0.84;81.39
69546;SHT31;56766;52.260;20.746;2023-12-04T14:43:03;-0.88;81.50
69546;SHT31;56766;52.260;20.746;2023-12-04T14:45:31;-0.94;81.54
69546;SHT31;56766;52.260;20.746;2023-12-04T14:47:58;-1.00;81.58
69546;SHT31;56766;52.260;20.746;2023-12-04T14:50:24;-1.06;81.59
69546;SHT31;56766;52.260;20.746;2023-12-04T14:52:51;-1.11;81.63
69546;SHT31;56766;52.260;20.746;2023-12-04T14:55:20;-1.22;81.53
69546;SHT31;56766;52.260;20.746;2023-12-04T14:57:51;-1.30;81.59
69546;SHT31;56766;52.260;20.746;2023-12-04T15:00:20;-1.40;81.59
69546;SHT31;56766;52.260;20.746;2023-12-04T15:03:22;-1.48;81.74
69546;SHT31;56766;52.260;20.746;2023-12-04T15:06:08;-1.57;81.58
69546;SHT31;56766;52.260;20.746;2023-12-04T15:08:38;-1.66;81.59
69546;SHT31;56766;52.260;20.746;2023-12-04T15:11:24;-1.74;81.68
69546;SHT31;56766;52.260;20.746;2023-12-04T15:14:30;-1.81;81.72
69546;SHT31;56766;52.260;20.746;2023-12-04T15:17:03;-1.86;81.90
69546;SHT31;56766;52.260;20.746;2023-12-04T15:19:49;-1.89;81.97
69546;SHT31;56766;52.260;20.746;2023-12-04T15:22:25;-1.90;82.23
69546;SHT31;56766;52.260;20.746;2023-12-04T15:24:51;-1.89;82.21
69546;SHT31;56766;52.260;20.746;2023-12-04T15:27:18;-1.89;82.44
69546;SHT31;56766;52.260;20.746;2023-12-04T15:29:45;-1.89;82.41